Time;durP1;ratioP1;P1;durP2;ratioP2;P2;SDS_P1;SDS_P2;PMS_P1;PMS_P2;Temp;Humidity;BMP_temperature;BMP_pressure;BME280_temperature;BME280_humidity;BME280_pressure;Samples;Min_cycle;Max_cycle;Signal;HPM_P1;HPM_P2
2021/05/26 00:00:55;;;;;;;7.30;3.47;;;;;;;15.76;67.73;99694.00;1699691;83;20203;-61
2021/05/26 00:03:22;;;;;;;4.97;2.95;;;;;;;15.74;67.81;99689.92;1694103;83;21097;-61
2021/05/26 00:05:49;;;;;;;5.62;2.95;;;;;;;15.69;67.92;99684.00;1693982;83;21096;-61
2021/05/26 00:08:30;;;;;;;;;;;;;;;15.65;68.01;99688.47;1701673;83;21555;-61
2021/05/26 00:11:00;;;;;;;5.12;2.40;;;;;;;15.61;68.34;99686.08;1701533;83;20172;-60
2021/05/26 00:13:28;;;;;;;4.65;2.80;;;;;;;15.60;68.28;99680.89;1703859;83;21119;-61
2021/05/26 00:15:56;;;;;;;5.03;2.35;;;;;;;15.60;68.41;99681.70;1695659;83;21005;-61
2021/05/26 00:18:23;;;;;;;4.55;2.45;;;;;;;15.54;68.64;99677.45;1695948;83;21072;-61
2021/05/26 00:20:53;;;;;;;5.53;2.45;;;;;;;15.52;68.80;99678.88;1706273;83;21079;-61
2021/05/26 00:23:20;;;;;;;5.50;2.08;;;;;;;15.47;69.22;99681.13;1710633;83;21080;-61
2021/05/26 00:25:47;;;;;;;3.20;1.80;;;;;;;15.50;69.06;99674.23;1706155;83;21569;-61
2021/05/26 00:28:13;;;;;;;4.62;2.08;;;;;;;15.46;69.24;99671.27;1693977;82;21646;-60
2021/05/26 00:30:46;;;;;;;7.53;2.12;;;;;;;15.38;69.42;99676.90;1699393;83;21033;-61
2021/05/26 00:33:11;;;;;;;6.37;2.35;;;;;;;15.35;69.58;99676.69;1722081;83;21123;-61
2021/05/26 00:35:37;;;;;;;;;;;;;;;15.35;69.75;99676.14;1698350;83;21363;-60
2021/05/26 00:38:04;;;;;;;4.40;1.90;;;;;;;15.36;69.77;99676.41;1712514;83;20150;-60
2021/05/26 00:40:32;;;;;;;6.17;2.40;;;;;;;15.24;70.20;99677.45;1718710;83;21057;-61
2021/05/26 00:42:59;;;;;;;6.28;2.17;;;;;;;15.15;70.67;99675.17;1694691;83;21151;-61
2021/05/26 00:45:26;;;;;;;2.25;1.70;;;;;;;15.13;70.87;99669.72;1681501;83;21571;-61
2021/05/26 00:47:53;;;;;;;5.08;3.02;;;;;;;15.13;71.04;99656.82;1691223;83;21148;-61
2021/05/26 00:50:24;;;;;;;;;;;;;;;15.13;71.19;99656.00;1631952;88;21081;-61
2021/05/26 00:52:53;;;;;;;6.45;4.70;;;;;;;15.09;71.43;99655.80;1645155;86;20149;-61
2021/05/26 00:55:21;;;;;;;9.33;3.92;;;;;;;14.99;71.59;99656.00;1643883;86;21585;-61
2021/05/26 00:57:49;;;;;;;8.08;4.15;;;;;;;15.01;71.89;99660.63;1678914;84;21081;-61
2021/05/26 01:00:20;;;;;;;5.42;3.27;;;;;;;15.08;71.75;99664.34;1695251;84;21009;-61
2021/05/26 01:02:51;;;;;;;3.80;2.50;;;;;;;15.13;71.81;99652.70;1612933;87;21120;-61
2021/05/26 01:05:21;;;;;;;6.42;2.40;;;;;;;15.17;71.68;99647.43;1684708;84;21029;-62
2021/05/26 01:07:48;;;;;;;4.58;2.80;;;;;;;15.15;71.81;99654.61;1685479;84;21140;-61
2021/05/26 01:10:16;;;;;;;5.17;2.75;;;;;;;15.20;71.77;99655.05;1686528;84;21045;-61
2021/05/26 01:12:50;;;;;;;6.42;3.02;;;;;;;15.27;71.59;99645.86;1635682;87;21233;-61
2021/05/26 01:15:17;;;;;;;7.83;3.80;;;;;;;15.30;71.53;99651.55;1681140;84;21080;-61
2021/05/26 01:17:43;;;;;;;5.20;3.30;;;;;;;15.28;71.50;99648.86;1684624;84;21489;-61
2021/05/26 01:20:23;;;;;;;8.30;4.05;;;;;;;15.25;71.62;99646.17;1670980;83;21025;-61
2021/05/26 01:22:50;;;;;;;6.53;4.10;;;;;;;15.24;71.70;99647.84;1700594;83;21121;-61
2021/05/26 01:25:17;;;;;;;6.12;4.37;;;;;;;15.23;71.81;99644.28;1694850;84;21053;-61
2021/05/26 01:27:43;;;;;;;6.30;4.40;;;;;;;15.19;71.96;99635.06;1680362;84;21766;-61
2021/05/26 01:30:13;;;;;;;6.12;3.85;;;;;;;15.13;72.31;99632.70;1634251;87;21072;-61
2021/05/26 01:32:45;;;;;;;5.12;3.20;;;;;;;15.11;72.37;99634.95;1681505;84;21678;-61
2021/05/26 01:35:14;;;;;;;4.37;2.70;;;;;;;15.12;72.35;99633.28;1694673;84;20994;-61
2021/05/26 01:37:43;;;;;;;6.20;3.20;;;;;;;15.09;72.61;99631.12;1692356;82;21591;-61
2021/05/26 01:40:12;;;;;;;4.35;3.08;;;;;;;15.05;72.62;99639.73;1697192;84;21600;-60
2021/05/26 01:42:38;;;;;;;5.78;2.65;;;;;;;14.98;73.10;99639.31;1696313;83;21053;-61
2021/05/26 01:45:08;;;;;;;5.67;2.40;;;;;;;15.00;73.00;99634.33;1621298;88;21052;-61
2021/05/26 01:47:35;;;;;;;4.58;2.10;;;;;;;15.02;72.92;99640.89;1698731;83;21644;-61
2021/05/26 01:50:06;;;;;;;3.20;2.15;;;;;;;15.01;73.14;99640.08;1702075;83;21504;-61
2021/05/26 01:52:34;;;;;;;3.58;2.30;;;;;;;14.99;73.19;99635.44;1673554;85;21686;-61
2021/05/26 01:55:01;;;;;;;3.47;2.52;;;;;;;14.92;73.55;99633.66;1696089;83;21005;-61
2021/05/26 01:57:28;;;;;;;5.15;2.35;;;;;;;14.95;73.49;99636.59;1631665;86;21128;-61
2021/05/26 01:59:56;;;;;;;4.08;2.30;;;;;;;15.03;73.37;99641.13;1710917;83;21024;-61
2021/05/26 02:02:24;;;;;;;8.20;2.90;;;;;;;15.06;73.40;99633.66;1709585;83;21052;-61
2021/05/26 02:04:51;;;;;;;5.72;2.77;;;;;;;15.07;73.40;99626.52;1716960;83;21012;-61
2021/05/26 02:07:18;;;;;;;5.35;2.30;;;;;;;15.04;73.65;99624.94;1721575;83;21622;-61
2021/05/26 02:09:44;;;;;;;;;;;;;;;15.05;73.61;99626.58;1707990;83;21020;-60
2021/05/26 02:12:23;;;;;;;2.60;1.80;;;;;;;15.10;73.43;99622.34;1683957;83;20501;-60
2021/05/26 02:14:55;;;;;;;2.98;1.77;;;;;;;15.10;73.45;99619.61;1693162;85;21466;-61
2021/05/26 02:17:23;;;;;;;4.45;2.40;;;;;;;15.10;73.68;99621.79;1719430;83;21076;-61
2021/05/26 02:19:52;;;;;;;3.08;1.72;;;;;;;15.08;73.80;99616.37;1716995;83;21579;-61
2021/05/26 02:22:20;;;;;;;4.53;1.92;;;;;;;15.11;73.85;99623.42;1638156;86;21129;-60
2021/05/26 02:24:49;;;;;;;3.65;2.05;;;;;;;15.17;73.62;99625.50;1696155;83;21019;-61
2021/05/26 02:27:15;;;;;;;7.55;2.45;;;;;;;15.23;73.38;99625.09;1704352;83;21139;-61
2021/05/26 02:29:44;;;;;;;3.42;2.30;;;;;;;15.23;73.30;99625.67;1640281;86;21028;-61
2021/05/26 02:32:11;;;;;;;3.30;2.08;;;;;;;15.21;73.32;99615.55;1695968;83;21088;-61
2021/05/26 02:34:40;;;;;;;4.87;2.85;;;;;;;15.23;73.29;99600.41;1696210;83;21104;-61
2021/05/26 02:37:07;;;;;;;;;;;;;;;15.25;73.25;99576.25;1721569;83;21127;-62
2021/05/26 02:39:33;;;;;;;4.90;2.75;;;;;;;15.23;73.29;99598.25;1669947;85;20186;-62
2021/05/26 02:42:01;;;;;;;5.65;2.55;;;;;;;15.17;73.55;99613.97;1695806;83;21603;-61
2021/05/26 02:44:27;;;;;;;;;;;;;;;15.17;73.83;99619.45;1699208;83;21033;-62
2021/05/26 02:46:54;;;;;;;4.03;1.92;;;;;;;15.25;73.61;99620.13;1670074;84;20535;-61
2021/05/26 02:49:21;;;;;;;3.40;2.10;;;;;;;15.31;73.57;99623.56;1645002;86;21081;-61
2021/05/26 02:51:49;;;;;;;4.85;1.92;;;;;;;15.38;73.45;99622.59;1650182;85;21073;-61
2021/05/26 02:54:16;;;;;;;4.72;2.62;;;;;;;15.41;73.32;99623.35;1640112;86;21035;-61
2021/05/26 02:56:43;;;;;;;4.55;2.65;;;;;;;15.44;73.15;99614.53;1666877;86;21088;-61
2021/05/26 02:59:10;;;;;;;7.42;2.80;;;;;;;15.54;73.05;99616.27;1659245;86;21050;-61
2021/05/26 03:01:56;;;;;;;6.05;2.65;;;;;;;15.63;72.86;99612.48;1683704;84;21104;-61
2021/05/26 03:04:27;;;;;;;9.33;3.00;;;;;;;15.70;72.81;99615.62;1687474;84;21037;-61
2021/05/26 03:06:54;;;;;;;3.02;2.17;;;;;;;15.76;72.78;99615.78;1683763;84;21102;-61
2021/05/26 03:09:23;;;;;;;3.70;1.90;;;;;;;15.88;72.55;99609.73;1684431;84;21053;-61
2021/05/26 03:11:50;;;;;;;5.03;2.35;;;;;;;16.06;72.28;99615.62;1706674;84;21116;-61
2021/05/26 03:14:18;;;;;;;5.67;2.65;;;;;;;16.25;71.96;99613.53;1711442;84;21029;-61
2021/05/26 03:16:48;;;;;;;4.80;2.80;;;;;;;16.37;71.65;99621.19;1707957;84;21076;-61
2021/05/26 03:19:16;;;;;;;5.12;2.90;;;;;;;16.48;71.45;99616.25;1707933;84;21571;-62
2021/05/26 03:21:43;;;;;;;3.95;2.45;;;;;;;16.57;71.02;99619.91;1659217;86;21069;-61
2021/05/26 03:24:21;;;;;;;6.65;2.72;;;;;;;16.68;70.75;99635.84;1598114;89;21119;-61
2021/05/26 03:26:48;;;;;;;4.83;2.65;;;;;;;16.73;70.55;99657.67;1722819;83;21132;-61
2021/05/26 03:29:15;;;;;;;;;;;;;;;16.73;70.72;99654.92;1729084;83;21008;-60
2021/05/26 03:31:41;;;;;;;4.03;2.70;;;;;;;16.77;70.89;99663.36;1729692;83;20160;-63
2021/05/26 03:34:08;;;;;;;3.67;2.50;;;;;;;16.75;71.00;99677.99;1729089;83;21020;-61
2021/05/26 03:36:38;;;;;;;7.58;2.12;;;;;;;16.84;70.90;99685.72;1704311;83;21103;-61
2021/05/26 03:39:10;;;;;;;3.65;2.05;;;;;;;16.92;70.65;99694.59;1710696;83;21043;-61
2021/05/26 03:41:39;;;;;;;6.62;2.37;;;;;;;16.93;70.80;99698.97;1708999;83;21670;-61
2021/05/26 03:44:07;;;;;;;4.62;2.25;;;;;;;16.91;70.93;99700.64;1628311;86;21554;-60
2021/05/26 03:46:34;;;;;;;4.90;2.10;;;;;;;16.93;70.88;99700.91;1642470;86;21151;-61
2021/05/26 03:49:03;;;;;;;3.25;2.20;;;;;;;17.00;70.73;99699.34;1628701;86;21556;-61
2021/05/26 03:51:29;;;;;;;3.92;2.00;;;;;;;17.02;70.46;99697.63;1653937;86;21079;-61
2021/05/26 03:53:57;;;;;;;5.40;2.27;;;;;;;17.01;70.55;99702.88;1644847;86;21605;-61
2021/05/26 03:56:25;;;;;;;5.65;2.08;;;;;;;17.00;70.59;99705.39;1646107;86;21571;-61
2021/05/26 03:58:59;;;;;;;6.00;2.33;;;;;;;17.01;70.55;99709.19;1698005;84;21181;-61
2021/05/26 04:01:27;;;;;;;3.58;2.33;;;;;;;17.05;70.91;99710.74;1693081;83;21080;-61
2021/05/26 04:03:54;;;;;;;5.47;3.12;;;;;;;17.08;71.41;99715.61;1706281;84;21579;-61
2021/05/26 04:06:20;;;;;;;4.10;2.70;;;;;;;17.05;71.59;99721.19;1708481;84;20998;-61
2021/05/26 04:08:47;;;;;;;5.30;2.98;;;;;;;17.00;72.21;99710.34;1689642;84;21600;-61
2021/05/26 04:11:15;;;;;;;5.37;2.60;;;;;;;16.96;71.90;99699.71;1697327;84;21049;-61
2021/05/26 04:13:47;;;;;;;5.28;2.87;;;;;;;16.93;72.05;99705.03;1698428;84;21045;-61
2021/05/26 04:16:15;;;;;;;4.72;2.60;;;;;;;16.90;72.71;99708.64;1680681;84;21021;-61
2021/05/26 04:18:44;;;;;;;4.35;3.10;;;;;;;16.90;72.72;99707.82;1673210;83;21485;-60
2021/05/26 04:21:10;;;;;;;6.15;2.85;;;;;;;16.85;73.25;99717.03;1688683;84;21017;-60
2021/05/26 04:23:37;;;;;;;6.45;2.77;;;;;;;16.76;73.76;99716.14;1696180;84;21060;-60
2021/05/26 04:26:05;;;;;;;6.37;3.02;;;;;;;16.70;74.03;99709.72;1689860;84;21029;-60
2021/05/26 04:28:31;;;;;;;5.35;3.22;;;;;;;16.65;74.53;99713.39;1687800;84;21620;-60
2021/05/26 04:30:58;;;;;;;4.00;2.92;;;;;;;16.61;74.95;99707.48;1697633;84;21037;-61
2021/05/26 04:33:27;;;;;;;4.35;3.00;;;;;;;16.56;74.96;99697.97;1694905;84;21121;-60
2021/05/26 04:35:54;;;;;;;;;;;;;;;16.47;75.40;99696.52;1709562;84;21357;-59
2021/05/26 04:38:20;;;;;;;4.80;3.20;;;;;;;16.41;76.04;99691.69;1710214;84;20164;-59
2021/05/26 04:40:47;;;;;;;;;;;;;;;16.32;76.33;99688.63;1704961;84;21084;-60
2021/05/26 04:43:14;;;;;;;5.03;2.80;;;;;;;16.26;76.60;99694.78;1695885;84;20549;-60
2021/05/26 04:45:42;;;;;;;4.87;2.83;;;;;;;16.20;77.02;99694.66;1701495;84;21017;-60
2021/05/26 04:48:09;;;;;;;5.70;3.30;;;;;;;16.16;77.37;99700.52;1695084;83;21694;-60
2021/05/26 04:50:37;;;;;;;4.83;3.02;;;;;;;16.13;77.83;99701.69;1706498;83;21017;-60
2021/05/26 04:53:03;;;;;;;4.97;2.85;;;;;;;16.17;78.03;99705.45;1674362;83;21064;-60
2021/05/26 04:55:29;;;;;;;;;;;;;;;16.22;77.96;99712.22;1698449;83;21009;-60
2021/05/26 04:58:03;;;;;;;4.85;2.92;;;;;;;16.25;77.96;99713.78;1705022;83;20203;-60
2021/05/26 05:00:30;;;;;;;6.72;3.00;;;;;;;16.25;78.25;99712.97;1696753;83;21029;-60
2021/05/26 05:02:59;;;;;;;;;;;;;;;16.34;78.25;99716.59;1725062;83;21138;-60
2021/05/26 05:05:32;;;;;;;6.33;3.50;;;;;;;16.41;78.07;99707.36;1711828;83;20174;-60
2021/05/26 05:08:01;;;;;;;4.97;3.40;;;;;;;16.38;78.32;99714.84;1693612;84;21092;-60
2021/05/26 05:10:28;;;;;;;6.47;3.47;;;;;;;16.43;78.25;99721.61;1697660;83;21630;-60
2021/05/26 05:12:54;;;;;;;;;;;;;;;16.55;78.09;99710.86;1724683;83;21084;-60
2021/05/26 05:15:21;;;;;;;8.93;3.22;;;;;;;16.67;77.67;99708.97;1722621;83;20576;-60
2021/05/26 05:17:50;;;;;;;4.40;3.02;;;;;;;16.72;77.72;99713.77;1708836;83;21072;-60
2021/05/26 05:20:20;;;;;;;5.22;3.02;;;;;;;16.88;77.94;99721.90;1693634;85;21028;-61
2021/05/26 05:22:49;;;;;;;5.03;3.35;;;;;;;17.06;77.92;99728.88;1693135;85;21120;-60
2021/05/26 05:25:16;;;;;;;5.67;3.08;;;;;;;17.20;77.71;99726.30;1709569;83;21073;-60
2021/05/26 05:27:42;;;;;;;;;;;;;;;17.36;76.61;99730.25;1724919;83;21639;-60
2021/05/26 05:30:10;;;;;;;4.78;2.98;;;;;;;17.56;76.23;99729.45;1722471;83;20490;-61
2021/05/26 05:32:36;;;;;;;5.12;3.35;;;;;;;17.67;75.12;99730.83;1722366;83;21100;-60
2021/05/26 05:35:03;;;;;;;;;;;;;;;17.78;74.83;99741.80;1711936;83;21001;-60
2021/05/26 05:37:29;;;;;;;5.00;3.92;;;;;;;17.87;75.08;99739.88;1722647;83;20176;-60
2021/05/26 05:39:56;;;;;;;6.85;3.98;;;;;;;17.89;74.61;99737.59;1701749;83;21044;-60
2021/05/26 05:42:22;;;;;;;5.72;4.33;;;;;;;18.04;74.41;99741.29;1703368;83;21064;-60
2021/05/26 05:44:48;;;;;;;;;;;;;;;18.13;73.22;99735.81;1705803;83;21029;-60
2021/05/26 05:47:15;;;;;;;5.67;4.35;;;;;;;18.17;72.64;99738.17;1702938;82;20170;-60
2021/05/26 05:49:41;;;;;;;5.17;4.08;;;;;;;18.06;72.74;99739.61;1702426;83;20996;-60
2021/05/26 05:52:11;;;;;;;;;;;;;;;18.07;72.77;99738.45;1704975;83;21693;-60
2021/05/26 05:54:38;;;;;;;4.92;3.50;;;;;;;18.13;72.96;99740.76;1709657;83;20183;-60
2021/05/26 05:57:05;;;;;;;4.70;3.37;;;;;;;18.14;72.90;99750.63;1704739;83;21678;-60
2021/05/26 05:59:32;;;;;;;5.62;3.77;;;;;;;18.08;72.39;99754.67;1705141;83;21096;-60
2021/05/26 06:02:00;;;;;;;6.10;2.72;;;;;;;18.00;72.57;99753.26;1681111;83;21041;-60
2021/05/26 06:04:27;;;;;;;7.37;3.37;;;;;;;17.93;72.49;99752.35;1703279;83;21064;-60
2021/05/26 06:06:53;;;;;;;5.92;3.20;;;;;;;17.89;72.70;99750.80;1695537;83;21056;-61
2021/05/26 06:09:21;;;;;;;6.97;3.55;;;;;;;17.95;72.66;99753.42;1693929;83;21060;-60
2021/05/26 06:11:48;;;;;;;5.00;3.50;;;;;;;17.96;72.41;99749.55;1693568;83;21611;-60
2021/05/26 06:14:17;;;;;;;6.22;3.98;;;;;;;17.94;72.90;99749.04;1657694;86;21081;-60
2021/05/26 06:16:43;;;;;;;4.97;3.60;;;;;;;17.89;72.57;99755.50;1695400;83;21618;-60
2021/05/26 06:19:09;;;;;;;;;;;;;;;17.94;72.91;99762.81;1696929;83;21099;-61
2021/05/26 06:21:35;;;;;;;6.10;3.42;;;;;;;18.03;73.14;99774.09;1701509;83;20178;-59
2021/05/26 06:26:47;;;;;;;4.33;2.80;;;;;;;17.96;73.33;99779.84;1786763;79;22902;-61
2021/05/26 06:29:14;;;;;;;5.58;2.92;;;;;;;17.87;73.73;99780.62;1809662;78;21523;-62
2021/05/26 06:31:42;;;;;;;4.30;2.40;;;;;;;17.97;73.70;99783.64;1788618;78;21121;-61
2021/05/26 06:34:08;;;;;;;;;;;;;;;18.03;72.88;99783.73;1716274;82;21047;-62
2021/05/26 06:36:35;;;;;;;5.33;2.92;;;;;;;18.03;73.17;99786.48;1774061;81;20150;-61
2021/05/26 06:39:04;;;;;;;4.50;3.10;;;;;;;17.97;73.44;99792.46;1759558;81;21007;-61
2021/05/26 06:41:31;;;;;;;6.62;2.70;;;;;;;18.03;72.98;99790.61;1760299;81;21071;-61
2021/05/26 06:43:59;;;;;;;3.65;2.90;;;;;;;18.11;72.42;99789.84;1765312;81;21517;-61
2021/05/26 06:46:25;;;;;;;7.30;2.75;;;;;;;18.18;72.21;99793.50;1765094;81;21472;-63
2021/05/26 06:48:51;;;;;;;5.17;3.05;;;;;;;18.18;72.07;99799.82;1752144;81;20968;-63
2021/05/26 06:51:17;;;;;;;;;;;;;;;18.19;72.32;99799.27;1754106;81;21056;-62
2021/05/26 06:53:45;;;;;;;5.50;2.80;;;;;;;18.24;72.27;99798.56;1764698;81;20153;-61
2021/05/26 06:56:13;;;;;;;4.42;2.50;;;;;;;18.31;72.37;99812.68;1741746;81;21642;-61
2021/05/26 06:58:39;;;;;;;;;;;;;;;18.46;72.14;99804.49;1772275;81;21008;-61
2021/05/26 07:01:06;;;;;;;6.13;3.03;;;;;;;18.60;71.93;99803.81;1766247;81;20156;-60
2021/05/26 07:03:33;;;;;;;5.55;2.80;;;;;;;18.63;72.09;99804.57;1740220;81;21522;-62
2021/05/26 07:05:59;;;;;;;;;;;;;;;18.71;72.22;99809.26;1745798;82;21043;-62
2021/05/26 07:08:25;;;;;;;3.98;2.92;;;;;;;18.83;71.36;99821.84;1743316;82;20146;-62
2021/05/26 07:10:51;;;;;;;;;;;;;;;18.85;70.84;99815.98;1745971;82;21071;-63
2021/05/26 07:13:19;;;;;;;4.87;3.42;;;;;;;18.80;70.78;99824.44;1743236;82;20170;-63
2021/05/26 07:15:47;;;;;;;3.98;3.05;;;;;;;18.63;70.81;99824.44;1743138;82;21091;-62
2021/05/26 07:18:14;;;;;;;4.45;2.98;;;;;;;18.58;71.23;99818.50;1743318;82;21935;-63
2021/05/26 07:20:43;;;;;;;;;;;;;;;18.64;71.30;99821.90;1745878;82;21064;-62
2021/05/26 07:23:08;;;;;;;3.90;2.90;;;;;;;18.68;71.16;99825.64;1714441;82;20501;-62
2021/05/26 07:25:35;;;;;;;5.50;3.22;;;;;;;18.57;71.10;99825.70;1739591;81;21068;-62
2021/05/26 07:28:02;;;;;;;5.25;2.70;;;;;;;18.52;71.24;99823.94;1734179;83;21099;-62
2021/05/26 07:30:28;;;;;;;7.22;2.80;;;;;;;18.53;71.27;99824.75;1734168;83;21095;-63
2021/05/26 07:32:55;;;;;;;3.47;2.20;;;;;;;18.53;71.46;99825.53;1734147;83;21104;-62
2021/05/26 07:35:21;;;;;;;;;;;;;;;18.53;71.52;99824.75;1736586;83;21051;-63
2021/05/26 07:37:48;;;;;;;4.23;2.40;;;;;;;18.51;71.70;99825.06;1733619;82;20191;-63
2021/05/26 07:40:15;;;;;;;4.90;2.30;;;;;;;18.45;71.83;99822.75;1733413;83;21079;-63
2021/05/26 07:42:42;;;;;;;3.35;2.42;;;;;;;18.40;71.69;99822.33;1733655;83;21693;-62
2021/05/26 07:45:09;;;;;;;;;;;;;;;18.44;71.71;99829.38;1736171;83;21064;-63
2021/05/26 07:47:35;;;;;;;4.40;2.67;;;;;;;18.51;71.23;99824.23;1733837;83;20152;-63
2021/05/26 07:50:03;;;;;;;4.22;2.33;;;;;;;18.48;71.17;99828.43;1733670;83;21052;-63
2021/05/26 07:52:30;;;;;;;3.33;2.67;;;;;;;18.46;71.27;99835.41;1733661;83;21128;-63
2021/05/26 07:54:58;;;;;;;5.40;2.77;;;;;;;18.44;71.49;99830.77;1733632;82;21556;-62
2021/05/26 07:57:24;;;;;;;4.05;2.27;;;;;;;18.48;71.58;99826.23;1733706;83;21103;-62
2021/05/26 07:59:51;;;;;;;3.60;2.55;;;;;;;18.51;71.62;99830.57;1733778;83;21024;-63
2021/05/26 08:02:18;;;;;;;5.62;2.55;;;;;;;18.51;71.75;99835.27;1733680;83;21108;-62
2021/05/26 08:04:45;;;;;;;5.72;2.55;;;;;;;18.44;71.57;99834.90;1733547;83;21570;-63
2021/05/26 08:07:11;;;;;;;3.65;2.22;;;;;;;18.30;72.17;99831.72;1733618;83;21626;-62
2021/05/26 08:09:37;;;;;;;5.72;2.47;;;;;;;18.16;72.75;99832.41;1733876;83;21062;-63
2021/05/26 08:12:08;;;;;;;4.50;2.50;;;;;;;18.09;73.23;99834.00;1733617;83;21088;-62
2021/05/26 08:14:34;;;;;;;3.08;2.30;;;;;;;18.04;73.66;99839.63;1733611;83;21591;-62
2021/05/26 08:17:00;;;;;;;5.30;2.08;;;;;;;18.03;73.92;99836.66;1733591;83;21646;-63
2021/05/26 08:19:26;;;;;;;5.12;2.87;;;;;;;18.06;74.19;99844.28;1733929;83;21040;-63
2021/05/26 08:21:54;;;;;;;3.37;2.45;;;;;;;18.11;74.29;99841.36;1733628;83;21095;-62
2021/05/26 08:24:21;;;;;;;6.42;3.25;;;;;;;18.15;74.06;99843.73;1733581;83;21040;-63
2021/05/26 08:26:50;;;;;;;;;;;;;;;18.18;73.31;99838.95;1735078;83;21096;-62
2021/05/26 08:29:18;;;;;;;4.45;2.12;;;;;;;18.20;73.15;99834.77;1732393;83;20187;-62
2021/05/26 08:31:46;;;;;;;6.22;2.50;;;;;;;18.21;73.11;99835.59;1732372;83;21104;-63
2021/05/26 08:34:12;;;;;;;6.35;3.12;;;;;;;18.26;72.57;99837.62;1732265;83;21016;-63
2021/05/26 08:36:39;;;;;;;5.80;3.10;;;;;;;18.20;71.80;99835.33;1732270;83;21068;-62
2021/05/26 08:39:06;;;;;;;4.12;2.60;;;;;;;18.15;71.86;99828.02;1732322;83;21025;-63
2021/05/26 08:41:32;;;;;;;4.00;2.40;;;;;;;18.17;71.54;99826.33;1732143;83;21096;-62
2021/05/26 08:43:58;;;;;;;3.98;2.52;;;;;;;18.19;71.85;99828.19;1732462;83;21048;-62
2021/05/26 08:46:27;;;;;;;4.03;2.70;;;;;;;18.25;72.09;99824.14;1732243;83;21430;-62
2021/05/26 08:48:57;;;;;;;6.17;3.08;;;;;;;18.30;71.85;99828.96;1732323;83;21016;-62
2021/05/26 08:51:23;;;;;;;6.95;3.17;;;;;;;18.36;72.58;99835.13;1785091;80;21061;-62
2021/05/26 08:53:49;;;;;;;3.33;2.37;;;;;;;18.46;72.39;99829.30;1785173;80;21018;-63
2021/05/26 08:56:15;;;;;;;;;;;;;;;18.59;71.56;99830.34;1787640;80;21089;-62
2021/05/26 08:58:42;;;;;;;5.10;2.58;;;;;;;18.61;70.93;99842.66;1785208;80;20146;-63
2021/05/26 09:01:10;;;;;;;5.83;2.90;;;;;;;18.53;71.21;99845.42;1785209;80;21065;-62
2021/05/26 09:03:36;;;;;;;;;;;;;;;18.56;70.81;99850.29;1787931;80;21050;-62
2021/05/26 09:06:05;;;;;;;5.72;2.40;;;;;;;18.60;71.28;99847.92;1785139;80;20550;-62
2021/05/26 09:08:32;;;;;;;4.25;2.40;;;;;;;18.58;72.29;99854.90;1785126;80;21062;-62
2021/05/26 09:11:01;;;;;;;3.90;2.70;;;;;;;18.61;72.45;99852.88;1785208;80;21085;-62
2021/05/26 09:13:36;;;;;;;4.03;2.62;;;;;;;18.62;72.23;99855.33;1785200;80;21613;-62
2021/05/26 09:16:05;;;;;;;5.78;3.00;;;;;;;18.52;71.35;99855.63;1785173;80;21058;-63
2021/05/26 09:19:01;;;;;;;4.30;3.02;;;;;;;18.39;71.91;99860.66;1785046;80;21078;-63
2021/05/26 09:21:45;;;;;;;7.55;2.80;;;;;;;18.34;72.21;99858.88;1785082;80;21140;-63
2021/05/26 09:24:27;;;;;;;5.53;2.67;;;;;;;18.43;72.26;99852.56;1785178;80;21010;-63
2021/05/26 09:27:08;;;;;;;4.97;2.62;;;;;;;18.50;72.32;99848.77;1787234;80;21121;-63
2021/05/26 09:29:42;;;;;;;4.62;2.60;;;;;;;18.52;72.41;99853.44;1788618;80;21521;-63
2021/05/26 09:32:22;;;;;;;6.33;2.80;;;;;;;18.44;72.30;99845.92;1788374;80;21110;-62
2021/05/26 09:34:54;;;;;;;6.47;2.90;;;;;;;18.39;72.54;99846.88;1788519;80;21034;-64
2021/05/26 09:37:25;;;;;;;5.28;2.98;;;;;;;18.37;72.49;99853.28;1788377;80;21125;-63
2021/05/26 09:40:00;;;;;;;8.48;3.00;;;;;;;18.32;72.41;99855.62;1762974;80;21536;-63
2021/05/26 09:42:36;;;;;;;5.00;3.12;;;;;;;18.31;72.61;99863.66;1788507;80;21082;-63
2021/05/26 09:45:13;;;;;;;7.90;3.25;;;;;;;18.31;72.61;99869.73;1788410;80;21033;-63
2021/05/26 09:47:49;;;;;;;6.25;3.12;;;;;;;18.31;72.75;99869.17;1788316;80;21644;-63
2021/05/26 09:50:34;;;;;;;5.60;3.20;;;;;;;18.44;72.62;99873.48;1788573;80;21124;-63
2021/05/26 09:53:11;;;;;;;4.90;3.00;;;;;;;18.62;72.40;99872.43;1788455;80;21677;-63
2021/05/26 09:55:44;;;;;;;4.75;3.15;;;;;;;18.84;71.50;99862.66;1788454;80;20975;-63
2021/05/26 09:58:13;;;;;;;6.35;3.50;;;;;;;18.98;70.55;99870.20;1788455;80;21054;-63
2021/05/26 10:00:41;;;;;;;6.35;3.20;;;;;;;19.00;70.36;99874.82;1787723;80;21026;-63
2021/05/26 10:03:07;;;;;;;4.55;3.00;;;;;;;19.04;70.27;99866.70;1788331;80;21093;-63
2021/05/26 10:05:34;;;;;;;7.45;3.33;;;;;;;19.12;69.54;99870.86;1788346;80;21557;-62
2021/05/26 10:08:19;;;;;;;5.00;3.00;;;;;;;19.25;68.61;99869.87;1788672;80;21077;-62
2021/05/26 10:10:54;;;;;;;3.72;3.02;;;;;;;19.21;68.51;99881.31;1761995;80;21038;-63
2021/05/26 10:13:24;;;;;;;4.58;3.20;;;;;;;19.13;68.74;99876.59;1788445;80;21078;-62
2021/05/26 10:15:50;;;;;;;4.37;2.70;;;;;;;19.13;68.46;99882.71;1788353;80;21002;-63
2021/05/26 10:18:18;;;;;;;4.47;2.65;;;;;;;19.15;68.67;99885.38;1788320;80;21105;-62
2021/05/26 10:20:45;;;;;;;4.22;3.00;;;;;;;19.09;68.83;99885.31;1788547;80;21037;-62
2021/05/26 10:23:17;;;;;;;4.80;3.20;;;;;;;19.03;68.92;99882.44;1788357;80;21710;-63
2021/05/26 10:25:44;;;;;;;3.98;2.90;;;;;;;18.98;69.33;99885.38;1788583;80;21624;-63
2021/05/26 10:28:32;;;;;;;4.60;2.80;;;;;;;18.97;69.18;99883.75;1793671;80;21127;-63
2021/05/26 10:31:05;;;;;;;3.80;2.33;;;;;;;19.00;69.16;99877.58;1790294;79;21061;-62
2021/05/26 10:33:51;;;;;;;5.47;2.60;;;;;;;19.08;69.25;99880.91;1815008;78;21020;-62
2021/05/26 10:36:17;;;;;;;4.15;2.27;;;;;;;19.09;68.89;99878.41;1815104;78;21044;-62
2021/05/26 10:38:58;;;;;;;4.22;2.80;;;;;;;19.08;68.90;99874.02;1821345;78;20972;-64
2021/05/26 10:41:44;;;;;;;3.33;2.62;;;;;;;19.07;69.19;99873.77;1783765;80;21062;-64
2021/05/26 10:44:11;;;;;;;5.35;2.33;;;;;;;19.06;69.34;99870.75;1760356;80;20994;-64
2021/05/26 10:46:38;;;;;;;6.50;4.05;;;;;;;19.14;69.25;99876.03;1756326;82;21447;-62
2021/05/26 10:49:07;;;;;;;8.45;4.50;;;;;;;19.16;69.67;99868.27;1696971;83;21607;-64
2021/05/26 10:51:56;;;;;;;6.42;4.55;;;;;;;19.10;70.15;99876.44;1731036;81;21126;-62
2021/05/26 10:54:44;;;;;;;7.00;4.08;;;;;;;19.03;70.43;99871.97;1768721;80;20973;-64
2021/05/26 10:57:10;;;;;;;8.95;3.90;;;;;;;19.06;71.17;99882.39;1785483;80;21141;-64
2021/05/26 10:59:39;;;;;;;9.35;7.05;;;;;;;19.09;70.81;99875.65;1785077;80;21455;-63
2021/05/26 11:02:09;;;;;;;9.95;7.08;;;;;;;19.08;70.76;99871.26;1778458;80;21103;-65
2021/05/26 11:04:36;;;;;;;9.00;5.62;;;;;;;19.03;70.86;99863.13;1757322;80;20972;-63
2021/05/26 11:07:32;;;;;;;10.03;6.20;;;;;;;19.04;71.08;99861.19;1756268;82;21075;-63
2021/05/26 11:10:07;;;;;;;9.90;6.55;;;;;;;19.10;70.76;99863.45;1758442;80;21546;-64
2021/05/26 11:12:58;;;;;;;7.65;6.10;;;;;;;19.24;70.61;99857.77;1778824;80;21073;-64
2021/05/26 11:15:44;;;;;;;9.55;5.03;;;;;;;19.21;70.89;99864.75;1739373;81;21030;-63
2021/05/26 11:18:28;;;;;;;6.85;3.87;;;;;;;19.21;71.09;99850.14;1728527;83;21133;-62
2021/05/26 11:20:46;;;;;;;8.08;4.10;;;;;;;19.28;70.59;99847.70;1727260;83;21034;-65
2021/05/26 11:23:14;;;;;;;4.40;3.62;;;;;;;19.33;70.01;99846.16;1743769;81;21056;-66
2021/05/26 11:25:56;;;;;;;9.70;4.78;;;;;;;19.34;69.37;99837.53;1746968;81;21040;-65
2021/05/26 11:28:29;;;;;;;7.30;4.35;;;;;;;19.33;69.43;99834.55;1738055;82;21127;-66
2021/05/26 11:31:04;;;;;;;8.38;4.45;;;;;;;19.27;69.48;99833.09;1737835;82;21044;-65
2021/05/26 11:33:31;;;;;;;10.38;4.20;;;;;;;19.27;69.57;99825.41;1737659;82;21092;-64
2021/05/26 11:36:05;;;;;;;5.95;3.65;;;;;;;19.31;70.04;99812.54;1737750;82;21060;-64
2021/05/26 11:38:32;;;;;;;7.95;4.20;;;;;;;19.36;70.07;99820.66;1736498;81;21131;-63
2021/05/26 11:41:01;;;;;;;7.17;4.50;;;;;;;19.39;70.18;99823.58;1708195;84;21356;-64
2021/05/26 11:43:33;;;;;;;6.20;4.22;;;;;;;19.39;69.52;99829.09;1732044;81;21116;-63
2021/05/26 11:46:07;;;;;;;5.33;4.08;;;;;;;19.42;69.72;99830.41;1758433;81;21111;-61
2021/05/26 11:48:34;;;;;;;5.35;4.00;;;;;;;19.52;69.16;99833.42;1758572;81;21021;-63
2021/05/26 11:51:00;;;;;;;6.95;4.83;;;;;;;19.57;69.52;99835.98;1757532;81;21016;-62